Bourbonnais, IL (60914)

2:56 PM CDT on August 04, 2015 (GMT -0500)
East Bradley | | Change Station
CLOSE
Current Station
Personal Weather Station
Location: Bradley, IL
Elevation: 650 ft
Nearby Weather Stations

Elev 650 ft 41.14 °N, 87.85 °W | Updated 3 minutes ago

Clear
Clear
84.4 °F
Feels Like 83 °F
N
8.9
Wind Variable Wind from NW

Today
High -- | Low -- °F
--% Chance of Precip.
Yesterday
High -- | Low -- °F
Precip. -- in
5:49 AM 8:04 PM
Waning Gibbous, 75% visible
Pressure 30.01 in
Visibility 10.0 miles
Clouds Scattered Clouds 5000 ft
Heat Index 83 °F
Dew Point 55 °F
Humidity 37%
Rainfall 0.00 in
Snow Depth Not available.
UV 8 out of 12
Pollen 7.70 out of 12
Air Quality Not available.
Flu Activity Not available.
METAR KIKK 041935Z AUTO 26009KT 10SM SCT050 27/14 A3001 RMK AO2 T02660143

More Conditions Fewer Conditions

Pressure 30.01 in
Visibility 10.0 miles
Clouds Scattered Clouds 5000 ft
Heat Index 83 °F
Dew Point 55 °F
Humidity 37%
Rainfall 0.00 in
Snow Depth Not available.
UV 8 out of 12
Pollen 7.70 out of 12
Air Quality Not available.
Flu Activity Not available.
METAR KIKK 041935Z AUTO 26009KT 10SM SCT050 27/14 A3001 RMK AO2 T02660143

More Conditions Fewer Conditions

10-Day Weather Forecast

×

Almanac

Astronomy

Aug. 04, 2015 Rise Set
Actual Time
Civil Twilight
Nautical Twilight
Astronomical Twilight
Moon
Length of Visible Light
Length of Day
Tomorrow will be .
, % of the Moon is Illuminated

Today's Extremes

State Highs State Lows

Community

WunderPhotos

Upload Photos

1,843,956 photos uploaded!

WunderBlogs® & News

Nearby

Air Quality

  Air Quality AQ Index Pollutant
Not available.

Snow Depth

Station Depth Elevation

Earthquake Activity

City Distance Mag. Time & Date
Minimum magnitude displayed is 2.5.

Coastal Water Temperatures

Place Temperature

Stations

Nearby Weather Stations

Station Location Temp. Windchill Dew Point Humidity Wind Precip. Elev Updated Type